sensor_id;sensor_type;location;lat;lon;timestamp;P1;durP1;ratioP1;P2;durP2;ratioP2
31920;SDS011;66282;52.090;4.400;2022-12-28T00:00:20;4.13;;;1.17;;
31920;SDS011;66282;52.090;4.400;2022-12-28T00:02:45;3.80;;;1.37;;
31920;SDS011;66282;52.090;4.400;2022-12-28T00:05:11;4.77;;;1.30;;
31920;SDS011;66282;52.090;4.400;2022-12-28T00:07:36;3.73;;;1.23;;
31920;SDS011;66282;52.090;4.400;2022-12-28T00:10:01;2.77;;;1.30;;
31920;SDS011;66282;52.090;4.400;2022-12-28T00:12:27;6.03;;;1.40;;
31920;SDS011;66282;52.090;4.400;2022-12-28T00:14:52;2.88;;;1.17;;
31920;SDS011;66282;52.090;4.400;2022-12-28T00:17:18;3.30;;;1.13;;
31920;SDS011;66282;52.090;4.400;2022-12-28T00:19:43;2.07;;;0.83;;
31920;SDS011;66282;52.090;4.400;2022-12-28T00:22:08;3.17;;;1.00;;
31920;SDS011;66282;52.090;4.400;2022-12-28T00:24:33;5.40;;;1.30;;
31920;SDS011;66282;52.090;4.400;2022-12-28T00:26:59;2.33;;;1.20;;
31920;SDS011;66282;52.090;4.400;2022-12-28T00:29:24;2.17;;;1.23;;
31920;SDS011;66282;52.090;4.400;2022-12-28T00:31:49;1.43;;;1.23;;
31920;SDS011;66282;52.090;4.400;2022-12-28T00:34:14;2.92;;;1.50;;
31920;SDS011;66282;52.090;4.400;2022-12-28T00:36:40;2.37;;;1.10;;
31920;SDS011;66282;52.090;4.400;2022-12-28T00:39:05;2.40;;;1.30;;
31920;SDS011;66282;52.090;4.400;2022-12-28T00:41:30;5.53;;;1.60;;
31920;SDS011;66282;52.090;4.400;2022-12-28T00:43:55;2.60;;;1.37;;
31920;SDS011;66282;52.090;4.400;2022-12-28T00:46:20;2.67;;;1.20;;
31920;SDS011;66282;52.090;4.400;2022-12-28T00:48:46;2.33;;;1.20;;
31920;SDS011;66282;52.090;4.400;2022-12-28T00:51:12;5.60;;;1.27;;
31920;SDS011;66282;52.090;4.400;2022-12-28T00:53:37;2.90;;;1.40;;
31920;SDS011;66282;52.090;4.400;2022-12-28T00:56:09;5.93;;;1.60;;
31920;SDS011;66282;52.090;4.400;2022-12-28T00:58:35;5.22;;;1.58;;
31920;SDS011;66282;52.090;4.400;2022-12-28T01:01:01;5.23;;;1.50;;
31920;SDS011;66282;52.090;4.400;2022-12-28T01:03:26;4.85;;;1.55;;
31920;SDS011;66282;52.090;4.400;2022-12-28T01:05:52;4.40;;;1.48;;
31920;SDS011;66282;52.090;4.400;2022-12-28T01:08:17;2.80;;;1.40;;
31920;SDS011;66282;52.090;4.400;2022-12-28T01:10:42;4.13;;;1.33;;
31920;SDS011;66282;52.090;4.400;2022-12-28T01:13:07;2.50;;;1.10;;
31920;SDS011;66282;52.090;4.400;2022-12-28T01:15:32;2.30;;;1.13;;
31920;SDS011;66282;52.090;4.400;2022-12-28T01:17:58;4.33;;;1.60;;
31920;SDS011;66282;52.090;4.400;2022-12-28T01:20:23;3.95;;;1.58;;
31920;SDS011;66282;52.090;4.400;2022-12-28T01:22:48;5.10;;;1.50;;
31920;SDS011;66282;52.090;4.400;2022-12-28T01:25:13;3.97;;;1.70;;
31920;SDS011;66282;52.090;4.400;2022-12-28T01:27:38;3.33;;;1.60;;
31920;SDS011;66282;52.090;4.400;2022-12-28T01:30:04;3.00;;;1.40;;
31920;SDS011;66282;52.090;4.400;2022-12-28T01:32:29;3.25;;;1.58;;
31920;SDS011;66282;52.090;4.400;2022-12-28T01:34:55;4.80;;;1.73;;
31920;SDS011;66282;52.090;4.400;2022-12-28T01:37:20;3.10;;;1.35;;
31920;SDS011;66282;52.090;4.400;2022-12-28T01:39:45;3.47;;;1.33;;
31920;SDS011;66282;52.090;4.400;2022-12-28T01:42:18;4.83;;;1.60;;
31920;SDS011;66282;52.090;4.400;2022-12-28T01:44:44;5.22;;;2.35;;
31920;SDS011;66282;52.090;4.400;2022-12-28T01:49:53;5.32;;;1.83;;
31920;SDS011;66282;52.090;4.400;2022-12-28T01:52:28;4.32;;;1.40;;
31920;SDS011;66282;52.090;4.400;2022-12-28T01:54:56;3.58;;;1.55;;
31920;SDS011;66282;52.090;4.400;2022-12-28T01:57:23;4.70;;;1.58;;
31920;SDS011;66282;52.090;4.400;2022-12-28T02:00:03;3.60;;;1.33;;
31920;SDS011;66282;52.090;4.400;2022-12-28T02:02:28;2.28;;;1.15;;
31920;SDS011;66282;52.090;4.400;2022-12-28T02:04:54;2.30;;;1.10;;
31920;SDS011;66282;52.090;4.400;2022-12-28T02:07:25;1.67;;;0.85;;
31920;SDS011;66282;52.090;4.400;2022-12-28T02:09:53;2.85;;;1.40;;
31920;SDS011;66282;52.090;4.400;2022-12-28T02:12:19;1.48;;;0.80;;
31920;SDS011;66282;52.090;4.400;2022-12-28T02:14:44;3.13;;;1.40;;
31920;SDS011;66282;52.090;4.400;2022-12-28T02:17:10;3.15;;;1.50;;
31920;SDS011;66282;52.090;4.400;2022-12-28T02:19:46;2.65;;;1.23;;
31920;SDS011;66282;52.090;4.400;2022-12-28T02:22:17;5.65;;;1.75;;
31920;SDS011;66282;52.090;4.400;2022-12-28T02:25:54;3.40;;;1.40;;
31920;SDS011;66282;52.090;4.400;2022-12-28T02:28:01;3.03;;;1.30;;
31920;SDS011;66282;52.090;4.400;2022-12-28T02:30:32;2.83;;;1.20;;
31920;SDS011;66282;52.090;4.400;2022-12-28T02:33:00;4.03;;;1.40;;
31920;SDS011;66282;52.090;4.400;2022-12-28T02:41:12;2.25;;;1.10;;
31920;SDS011;66282;52.090;4.400;2022-12-28T02:43:37;3.28;;;1.20;;
31920;SDS011;66282;52.090;4.400;2022-12-28T02:46:25;2.30;;;1.15;;
31920;SDS011;66282;52.090;4.400;2022-12-28T02:49:26;2.70;;;1.10;;
31920;SDS011;66282;52.090;4.400;2022-12-28T02:52:14;3.00;;;1.50;;
31920;SDS011;66282;52.090;4.400;2022-12-28T03:02:33;2.27;;;1.07;;
31920;SDS011;66282;52.090;4.400;2022-12-28T03:08:05;3.22;;;1.15;;
31920;SDS011;66282;52.090;4.400;2022-12-28T03:11:03;2.85;;;1.20;;
31920;SDS011;66282;52.090;4.400;2022-12-28T03:14:15;2.20;;;1.13;;
31920;SDS011;66282;52.090;4.400;2022-12-28T03:16:31;1.90;;;1.20;;
31920;SDS011;66282;52.090;4.400;2022-12-28T03:19:01;4.78;;;1.30;;
31920;SDS011;66282;52.090;4.400;2022-12-28T03:21:46;2.53;;;1.27;;
31920;SDS011;66282;52.090;4.400;2022-12-28T03:24:31;5.15;;;1.42;;
31920;SDS011;66282;52.090;4.400;2022-12-28T03:27:17;3.20;;;1.15;;
31920;SDS011;66282;52.090;4.400;2022-12-28T03:30:12;2.70;;;1.40;;
31920;SDS011;66282;52.090;4.400;2022-12-28T03:32:56;2.53;;;1.38;;
31920;SDS011;66282;52.090;4.400;2022-12-28T03:35:22;1.98;;;0.88;;
31920;SDS011;66282;52.090;4.400;2022-12-28T03:37:51;1.63;;;0.80;;
31920;SDS011;66282;52.090;4.400;2022-12-28T03:40:21;3.20;;;1.20;;
31920;SDS011;66282;52.090;4.400;2022-12-28T03:42:48;2.28;;;1.10;;
31920;SDS011;66282;52.090;4.400;2022-12-28T03:47:58;1.25;;;0.93;;
31920;SDS011;66282;52.090;4.400;2022-12-28T03:50:25;2.83;;;1.15;;
31920;SDS011;66282;52.090;4.400;2022-12-28T03:52:50;4.28;;;1.23;;
31920;SDS011;66282;52.090;4.400;2022-12-28T03:55:15;1.40;;;0.88;;
31920;SDS011;66282;52.090;4.400;2022-12-28T03:57:41;3.03;;;0.98;;
31920;SDS011;66282;52.090;4.400;2022-12-28T04:00:07;2.57;;;0.90;;
31920;SDS011;66282;52.090;4.400;2022-12-28T04:02:36;2.72;;;1.00;;
31920;SDS011;66282;52.090;4.400;2022-12-28T04:05:01;2.17;;;1.00;;
31920;SDS011;66282;52.090;4.400;2022-12-28T04:07:26;2.70;;;0.90;;
31920;SDS011;66282;52.090;4.400;2022-12-28T04:09:52;1.83;;;1.00;;
31920;SDS011;66282;52.090;4.400;2022-12-28T04:12:17;1.63;;;0.80;;
31920;SDS011;66282;52.090;4.400;2022-12-28T04:14:42;2.97;;;1.00;;
31920;SDS011;66282;52.090;4.400;2022-12-28T04:17:07;1.65;;;0.90;;
31920;SDS011;66282;52.090;4.400;2022-12-28T04:19:32;2.30;;;1.10;;
31920;SDS011;66282;52.090;4.400;2022-12-28T04:21:58;2.97;;;1.20;;
31920;SDS011;66282;52.090;4.400;2022-12-28T04:24:23;2.17;;;1.00;;
31920;SDS011;66282;52.090;4.400;2022-12-28T04:26:48;3.00;;;1.13;;
31920;SDS011;66282;52.090;4.400;2022-12-28T04:29:13;2.50;;;1.10;;
31920;SDS011;66282;52.090;4.400;2022-12-28T04:31:38;3.63;;;0.90;;
31920;SDS011;66282;52.090;4.400;2022-12-28T04:34:04;2.63;;;1.17;;
31920;SDS011;66282;52.090;4.400;2022-12-28T04:36:30;2.20;;;1.20;;
31920;SDS011;66282;52.090;4.400;2022-12-28T04:38:56;2.67;;;0.93;;
31920;SDS011;66282;52.090;4.400;2022-12-28T04:41:22;3.10;;;1.10;;
31920;SDS011;66282;52.090;4.400;2022-12-28T04:43:47;3.20;;;1.20;;
31920;SDS011;66282;52.090;4.400;2022-12-28T04:46:13;1.07;;;0.80;;
31920;SDS011;66282;52.090;4.400;2022-12-28T04:48:38;2.88;;;1.05;;
31920;SDS011;66282;52.090;4.400;2022-12-28T04:51:22;3.30;;;1.00;;
31920;SDS011;66282;52.090;4.400;2022-12-28T04:53:48;1.95;;;0.80;;
31920;SDS011;66282;52.090;4.400;2022-12-28T04:56:13;3.33;;;1.00;;
31920;SDS011;66282;52.090;4.400;2022-12-28T04:58:39;4.28;;;1.00;;
31920;SDS011;66282;52.090;4.400;2022-12-28T05:01:06;1.30;;;0.80;;
31920;SDS011;66282;52.090;4.400;2022-12-28T05:03:31;1.83;;;0.80;;
31920;SDS011;66282;52.090;4.400;2022-12-28T05:06:03;1.00;;;0.70;;
31920;SDS011;66282;52.090;4.400;2022-12-28T05:08:32;1.60;;;0.88;;
31920;SDS011;66282;52.090;4.400;2022-12-28T05:11:00;1.88;;;0.90;;
31920;SDS011;66282;52.090;4.400;2022-12-28T05:13:26;1.40;;;0.80;;
31920;SDS011;66282;52.090;4.400;2022-12-28T05:15:51;2.65;;;0.93;;
31920;SDS011;66282;52.090;4.400;2022-12-28T05:18:16;2.47;;;1.27;;
31920;SDS011;66282;52.090;4.400;2022-12-28T05:20:41;1.80;;;0.70;;
31920;SDS011;66282;52.090;4.400;2022-12-28T05:23:06;0.68;;;0.43;;
31920;SDS011;66282;52.090;4.400;2022-12-28T05:25:32;1.27;;;0.80;;
31920;SDS011;66282;52.090;4.400;2022-12-28T05:27:57;1.90;;;0.80;;
31920;SDS011;66282;52.090;4.400;2022-12-28T05:30:22;3.13;;;0.90;;
31920;SDS011;66282;52.090;4.400;2022-12-28T05:32:47;1.83;;;0.90;;
31920;SDS011;66282;52.090;4.400;2022-12-28T05:35:12;2.23;;;0.83;;
31920;SDS011;66282;52.090;4.400;2022-12-28T05:37:38;2.05;;;0.80;;
31920;SDS011;66282;52.090;4.400;2022-12-28T05:40:03;2.73;;;0.60;;
31920;SDS011;66282;52.090;4.400;2022-12-28T05:42:28;1.52;;;0.70;;
31920;SDS011;66282;52.090;4.400;2022-12-28T05:44:54;1.93;;;0.87;;
31920;SDS011;66282;52.090;4.400;2022-12-28T05:47:19;2.00;;;0.85;;
31920;SDS011;66282;52.090;4.400;2022-12-28T05:49:44;2.10;;;1.03;;
31920;SDS011;66282;52.090;4.400;2022-12-28T05:52:09;2.00;;;0.63;;
31920;SDS011;66282;52.090;4.400;2022-12-28T05:54:34;1.53;;;0.67;;
31920;SDS011;66282;52.090;4.400;2022-12-28T05:56:59;2.30;;;0.80;;
31920;SDS011;66282;52.090;4.400;2022-12-28T05:59:25;1.08;;;0.75;;
31920;SDS011;66282;52.090;4.400;2022-12-28T06:01:50;1.60;;;0.70;;
31920;SDS011;66282;52.090;4.400;2022-12-28T06:04:16;0.70;;;0.60;;
31920;SDS011;66282;52.090;4.400;2022-12-28T06:06:42;1.25;;;0.82;;
31920;SDS011;66282;52.090;4.400;2022-12-28T06:09:07;2.13;;;0.82;;
31920;SDS011;66282;52.090;4.400;2022-12-28T06:11:33;1.30;;;0.80;;
31920;SDS011;66282;52.090;4.400;2022-12-28T06:13:58;1.60;;;0.70;;
31920;SDS011;66282;52.090;4.400;2022-12-28T06:16:24;1.85;;;0.77;;
31920;SDS011;66282;52.090;4.400;2022-12-28T06:18:50;2.58;;;0.80;;
31920;SDS011;66282;52.090;4.400;2022-12-28T06:23:45;1.70;;;0.88;;
31920;SDS011;66282;52.090;4.400;2022-12-28T06:26:11;1.17;;;0.70;;
31920;SDS011;66282;52.090;4.400;2022-12-28T06:28:37;2.75;;;1.10;;
31920;SDS011;66282;52.090;4.400;2022-12-28T06:33:30;1.45;;;0.73;;
31920;SDS011;66282;52.090;4.400;2022-12-28T06:35:55;4.03;;;0.80;;
31920;SDS011;66282;52.090;4.400;2022-12-28T06:38:21;1.73;;;0.60;;
31920;SDS011;66282;52.090;4.400;2022-12-28T06:40:46;1.20;;;0.70;;
31920;SDS011;66282;52.090;4.400;2022-12-28T06:43:11;1.03;;;0.73;;
31920;SDS011;66282;52.090;4.400;2022-12-28T06:45:36;1.00;;;0.80;;
31920;SDS011;66282;52.090;4.400;2022-12-28T06:48:01;1.20;;;0.70;;
31920;SDS011;66282;52.090;4.400;2022-12-28T06:50:27;1.27;;;0.53;;
31920;SDS011;66282;52.090;4.400;2022-12-28T06:52:52;1.30;;;0.80;;
31920;SDS011;66282;52.090;4.400;2022-12-28T06:55:17;1.30;;;0.70;;
31920;SDS011;66282;52.090;4.400;2022-12-28T06:57:42;1.13;;;0.83;;
31920;SDS011;66282;52.090;4.400;2022-12-28T07:00:08;1.07;;;0.70;;
31920;SDS011;66282;52.090;4.400;2022-12-28T07:02:33;0.80;;;0.52;;
31920;SDS011;66282;52.090;4.400;2022-12-28T07:04:58;1.75;;;0.70;;
31920;SDS011;66282;52.090;4.400;2022-12-28T07:07:24;2.43;;;0.77;;
31920;SDS011;66282;52.090;4.400;2022-12-28T07:09:49;3.30;;;0.87;;
31920;SDS011;66282;52.090;4.400;2022-12-28T07:12:14;0.77;;;0.60;;
31920;SDS011;66282;52.090;4.400;2022-12-28T07:14:39;1.90;;;0.70;;
31920;SDS011;66282;52.090;4.400;2022-12-28T07:17:04;1.07;;;0.67;;
31920;SDS011;66282;52.090;4.400;2022-12-28T07:19:30;2.80;;;0.80;;
31920;SDS011;66282;52.090;4.400;2022-12-28T07:21:55;0.80;;;0.60;;
31920;SDS011;66282;52.090;4.400;2022-12-28T07:24:20;2.23;;;1.00;;
31920;SDS011;66282;52.090;4.400;2022-12-28T07:26:45;1.30;;;0.73;;
31920;SDS011;66282;52.090;4.400;2022-12-28T07:29:12;0.90;;;0.70;;
31920;SDS011;66282;52.090;4.400;2022-12-28T07:31:38;1.10;;;0.70;;
31920;SDS011;66282;52.090;4.400;2022-12-28T07:34:04;2.13;;;0.85;;
31920;SDS011;66282;52.090;4.400;2022-12-28T07:36:30;1.67;;;0.90;;
31920;SDS011;66282;52.090;4.400;2022-12-28T07:38:55;2.78;;;0.98;;
31920;SDS011;66282;52.090;4.400;2022-12-28T07:41:22;2.15;;;0.90;;
31920;SDS011;66282;52.090;4.400;2022-12-28T07:43:47;0.57;;;0.50;;
31920;SDS011;66282;52.090;4.400;2022-12-28T07:46:17;1.47;;;0.80;;
31920;SDS011;66282;52.090;4.400;2022-12-28T07:48:43;2.85;;;0.80;;
31920;SDS011;66282;52.090;4.400;2022-12-28T07:53:34;1.35;;;0.70;;
31920;SDS011;66282;52.090;4.400;2022-12-28T07:56:00;1.67;;;0.60;;
31920;SDS011;66282;52.090;4.400;2022-12-28T07:58:25;1.20;;;0.87;;
31920;SDS011;66282;52.090;4.400;2022-12-28T08:00:50;2.78;;;1.00;;
31920;SDS011;66282;52.090;4.400;2022-12-28T08:03:16;1.25;;;0.80;;
31920;SDS011;66282;52.090;4.400;2022-12-28T08:05:42;1.38;;;0.60;;
31920;SDS011;66282;52.090;4.400;2022-12-28T08:08:07;1.30;;;0.80;;
31920;SDS011;66282;52.090;4.400;2022-12-28T08:10:32;1.45;;;0.60;;
31920;SDS011;66282;52.090;4.400;2022-12-28T08:12:58;1.65;;;0.63;;
31920;SDS011;66282;52.090;4.400;2022-12-28T08:15:23;1.45;;;0.73;;
31920;SDS011;66282;52.090;4.400;2022-12-28T08:17:49;1.80;;;0.90;;
31920;SDS011;66282;52.090;4.400;2022-12-28T08:20:14;2.23;;;0.80;;
31920;SDS011;66282;52.090;4.400;2022-12-28T08:22:39;1.37;;;1.00;;
31920;SDS011;66282;52.090;4.400;2022-12-28T08:25:04;1.53;;;0.80;;
31920;SDS011;66282;52.090;4.400;2022-12-28T08:27:30;1.92;;;0.90;;
31920;SDS011;66282;52.090;4.400;2022-12-28T08:29:55;1.47;;;0.83;;
31920;SDS011;66282;52.090;4.400;2022-12-28T08:32:20;1.60;;;0.83;;
31920;SDS011;66282;52.090;4.400;2022-12-28T08:34:45;3.27;;;0.87;;
31920;SDS011;66282;52.090;4.400;2022-12-28T08:37:11;2.70;;;0.97;;
31920;SDS011;66282;52.090;4.400;2022-12-28T08:39:36;0.80;;;0.60;;
31920;SDS011;66282;52.090;4.400;2022-12-28T08:42:01;0.73;;;0.60;;
31920;SDS011;66282;52.090;4.400;2022-12-28T08:44:27;1.25;;;0.63;;
31920;SDS011;66282;52.090;4.400;2022-12-28T08:46:53;1.33;;;0.80;;
31920;SDS011;66282;52.090;4.400;2022-12-28T08:49:18;1.67;;;0.75;;
31920;SDS011;66282;52.090;4.400;2022-12-28T08:51:43;1.03;;;0.70;;
31920;SDS011;66282;52.090;4.400;2022-12-28T08:54:09;1.33;;;0.70;;
31920;SDS011;66282;52.090;4.400;2022-12-28T08:56:36;3.45;;;0.90;;
31920;SDS011;66282;52.090;4.400;2022-12-28T08:59:02;0.95;;;0.65;;
31920;SDS011;66282;52.090;4.400;2022-12-28T09:01:29;0.75;;;0.50;;
31920;SDS011;66282;52.090;4.400;2022-12-28T09:03:55;1.23;;;0.65;;
31920;SDS011;66282;52.090;4.400;2022-12-28T09:06:22;1.65;;;0.73;;
31920;SDS011;66282;52.090;4.400;2022-12-28T09:08:48;0.75;;;0.60;;
31920;SDS011;66282;52.090;4.400;2022-12-28T09:11:14;0.60;;;0.50;;
31920;SDS011;66282;52.090;4.400;2022-12-28T09:13:39;1.80;;;0.70;;
31920;SDS011;66282;52.090;4.400;2022-12-28T09:16:08;0.73;;;0.40;;
31920;SDS011;66282;52.090;4.400;2022-12-28T09:18:34;2.60;;;0.50;;
31920;SDS011;66282;52.090;4.400;2022-12-28T09:21:03;1.30;;;0.60;;
31920;SDS011;66282;52.090;4.400;2022-12-28T09:23:28;1.98;;;0.60;;
31920;SDS011;66282;52.090;4.400;2022-12-28T09:25:53;2.03;;;0.80;;
31920;SDS011;66282;52.090;4.400;2022-12-28T09:28:19;0.73;;;0.50;;
31920;SDS011;66282;52.090;4.400;2022-12-28T09:30:44;0.60;;;0.50;;
31920;SDS011;66282;52.090;4.400;2022-12-28T09:33:09;1.43;;;0.67;;
31920;SDS011;66282;52.090;4.400;2022-12-28T09:35:56;1.35;;;0.70;;
31920;SDS011;66282;52.090;4.400;2022-12-28T09:38:21;1.50;;;0.68;;
31920;SDS011;66282;52.090;4.400;2022-12-28T09:40:46;2.00;;;0.67;;
31920;SDS011;66282;52.090;4.400;2022-12-28T09:43:11;1.17;;;0.60;;
31920;SDS011;66282;52.090;4.400;2022-12-28T09:45:37;0.40;;;0.40;;
31920;SDS011;66282;52.090;4.400;2022-12-28T09:48:06;1.27;;;0.50;;
31920;SDS011;66282;52.090;4.400;2022-12-28T09:50:33;1.58;;;0.70;;
31920;SDS011;66282;52.090;4.400;2022-12-28T09:55:27;0.90;;;0.57;;
31920;SDS011;66282;52.090;4.400;2022-12-28T09:57:54;1.02;;;0.60;;
31920;SDS011;66282;52.090;4.400;2022-12-28T10:00:24;1.95;;;0.60;;
31920;SDS011;66282;52.090;4.400;2022-12-28T10:02:54;0.85;;;0.65;;
31920;SDS011;66282;52.090;4.400;2022-12-28T10:07:46;1.55;;;0.75;;
31920;SDS011;66282;52.090;4.400;2022-12-28T10:10:15;0.63;;;0.53;;
31920;SDS011;66282;52.090;4.400;2022-12-28T10:12:41;1.23;;;0.70;;
31920;SDS011;66282;52.090;4.400;2022-12-28T10:15:09;4.88;;;0.73;;
31920;SDS011;66282;52.090;4.400;2022-12-28T10:17:35;2.20;;;0.65;;
31920;SDS011;66282;52.090;4.400;2022-12-28T10:20:01;2.40;;;0.70;;
31920;SDS011;66282;52.090;4.400;2022-12-28T10:22:27;1.05;;;0.60;;
31920;SDS011;66282;52.090;4.400;2022-12-28T10:24:54;2.85;;;0.70;;
31920;SDS011;66282;52.090;4.400;2022-12-28T10:27:23;1.03;;;0.73;;
31920;SDS011;66282;52.090;4.400;2022-12-28T10:29:50;1.23;;;0.60;;
31920;SDS011;66282;52.090;4.400;2022-12-28T10:32:15;1.02;;;0.60;;
31920;SDS011;66282;52.090;4.400;2022-12-28T10:34:55;2.15;;;0.50;;
31920;SDS011;66282;52.090;4.400;2022-12-28T10:37:21;1.95;;;0.80;;
31920;SDS011;66282;52.090;4.400;2022-12-28T10:39:52;1.00;;;0.60;;
31920;SDS011;66282;52.090;4.400;2022-12-28T10:42:51;1.23;;;0.70;;
31920;SDS011;66282;52.090;4.400;2022-12-28T10:45:17;2.17;;;0.50;;
31920;SDS011;66282;52.090;4.400;2022-12-28T10:47:45;2.60;;;0.70;;
31920;SDS011;66282;52.090;4.400;2022-12-28T10:52:55;0.88;;;0.57;;
31920;SDS011;66282;52.090;4.400;2022-12-28T10:55:25;2.58;;;0.60;;
31920;SDS011;66282;52.090;4.400;2022-12-28T10:57:50;0.93;;;0.57;;
31920;SDS011;66282;52.090;4.400;2022-12-28T11:00:19;1.37;;;0.60;;
31920;SDS011;66282;52.090;4.400;2022-12-28T11:02:44;1.67;;;0.63;;
31920;SDS011;66282;52.090;4.400;2022-12-28T11:05:17;1.20;;;0.60;;
31920;SDS011;66282;52.090;4.400;2022-12-28T11:07:42;1.10;;;0.60;;
31920;SDS011;66282;52.090;4.400;2022-12-28T11:10:27;2.83;;;0.80;;
31920;SDS011;66282;52.090;4.400;2022-12-28T11:12:54;3.80;;;0.90;;
31920;SDS011;66282;52.090;4.400;2022-12-28T11:15:21;1.30;;;0.70;;
31920;SDS011;66282;52.090;4.400;2022-12-28T11:17:56;0.88;;;0.50;;
31920;SDS011;66282;52.090;4.400;2022-12-28T11:20:23;1.02;;;0.60;;
31920;SDS011;66282;52.090;4.400;2022-12-28T11:22:50;2.50;;;0.80;;
31920;SDS011;66282;52.090;4.400;2022-12-28T11:25:16;1.40;;;0.60;;
31920;SDS011;66282;52.090;4.400;2022-12-28T11:27:42;1.42;;;0.70;;
31920;SDS011;66282;52.090;4.400;2022-12-28T11:30:12;3.80;;;0.80;;
31920;SDS011;66282;52.090;4.400;2022-12-28T11:32:40;0.82;;;0.60;;
31920;SDS011;66282;52.090;4.400;2022-12-28T11:35:06;1.10;;;0.75;;
31920;SDS011;66282;52.090;4.400;2022-12-28T11:37:46;1.60;;;0.68;;
31920;SDS011;66282;52.090;4.400;2022-12-28T11:40:25;1.13;;;0.65;;
31920;SDS011;66282;52.090;4.400;2022-12-28T11:42:57;2.90;;;0.80;;
31920;SDS011;66282;52.090;4.400;2022-12-28T11:50:50;2.70;;;0.70;;
31920;SDS011;66282;52.090;4.400;2022-12-28T11:53:20;1.55;;;0.57;;
31920;SDS011;66282;52.090;4.400;2022-12-28T11:55:54;1.33;;;0.60;;
31920;SDS011;66282;52.090;4.400;2022-12-28T12:01:47;1.08;;;0.57;;
31920;SDS011;66282;52.090;4.400;2022-12-28T12:11:48;1.83;;;0.80;;
31920;SDS011;66282;52.090;4.400;2022-12-28T12:14:14;4.40;;;1.23;;
31920;SDS011;66282;52.090;4.400;2022-12-28T12:16:46;2.03;;;0.75;;
31920;SDS011;66282;52.090;4.400;2022-12-28T12:21:38;2.83;;;0.90;;
31920;SDS011;66282;52.090;4.400;2022-12-28T12:24:18;3.03;;;0.70;;
31920;SDS011;66282;52.090;4.400;2022-12-28T12:26:48;1.08;;;0.77;;
31920;SDS011;66282;52.090;4.400;2022-12-28T12:29:21;5.32;;;0.70;;
31920;SDS011;66282;52.090;4.400;2022-12-28T12:34:53;1.88;;;1.00;;
31920;SDS011;66282;52.090;4.400;2022-12-28T12:50:49;4.00;;;1.00;;
31920;SDS011;66282;52.090;4.400;2022-12-28T12:55:57;2.65;;;0.82;;
31920;SDS011;66282;52.090;4.400;2022-12-28T12:58:26;3.83;;;1.00;;
31920;SDS011;66282;52.090;4.400;2022-12-28T13:05:51;4.00;;;1.07;;
31920;SDS011;66282;52.090;4.400;2022-12-28T13:08:22;5.03;;;0.80;;
31920;SDS011;66282;52.090;4.400;2022-12-28T13:10:48;2.17;;;0.80;;
31920;SDS011;66282;52.090;4.400;2022-12-28T13:13:17;2.17;;;0.80;;
31920;SDS011;66282;52.090;4.400;2022-12-28T13:15:43;4.68;;;0.70;;
31920;SDS011;66282;52.090;4.400;2022-12-28T13:18:16;5.25;;;0.80;;
31920;SDS011;66282;52.090;4.400;2022-12-28T13:20:50;2.92;;;1.00;;
31920;SDS011;66282;52.090;4.400;2022-12-28T13:23:16;1.92;;;0.70;;
31920;SDS011;66282;52.090;4.400;2022-12-28T13:25:43;2.63;;;0.80;;
31920;SDS011;66282;52.090;4.400;2022-12-28T13:28:16;3.60;;;0.90;;
31920;SDS011;66282;52.090;4.400;2022-12-28T13:30:42;3.50;;;0.63;;
31920;SDS011;66282;52.090;4.400;2022-12-28T13:33:19;1.77;;;0.93;;
31920;SDS011;66282;52.090;4.400;2022-12-28T13:35:45;1.88;;;0.60;;
31920;SDS011;66282;52.090;4.400;2022-12-28T13:38:14;7.13;;;2.10;;
31920;SDS011;66282;52.090;4.400;2022-12-28T13:40:40;1.73;;;0.70;;
31920;SDS011;66282;52.090;4.400;2022-12-28T13:45:52;2.10;;;0.70;;
31920;SDS011;66282;52.090;4.400;2022-12-28T13:48:19;4.20;;;0.80;;
31920;SDS011;66282;52.090;4.400;2022-12-28T13:50:44;2.95;;;0.68;;
31920;SDS011;66282;52.090;4.400;2022-12-28T13:53:11;2.78;;;0.88;;
31920;SDS011;66282;52.090;4.400;2022-12-28T13:58:02;2.87;;;0.70;;
31920;SDS011;66282;52.090;4.400;2022-12-28T14:00:31;4.22;;;1.00;;
31920;SDS011;66282;52.090;4.400;2022-12-28T14:02:57;4.07;;;0.70;;
31920;SDS011;66282;52.090;4.400;2022-12-28T14:05:23;2.78;;;0.70;;
31920;SDS011;66282;52.090;4.400;2022-12-28T14:07:50;1.35;;;0.70;;
31920;SDS011;66282;52.090;4.400;2022-12-28T14:10:17;1.92;;;0.70;;
31920;SDS011;66282;52.090;4.400;2022-12-28T14:12:42;4.70;;;0.80;;
31920;SDS011;66282;52.090;4.400;2022-12-28T14:15:08;2.47;;;0.77;;
31920;SDS011;66282;52.090;4.400;2022-12-28T14:17:35;2.33;;;0.93;;
31920;SDS011;66282;52.090;4.400;2022-12-28T14:20:01;4.90;;;0.93;;
31920;SDS011;66282;52.090;4.400;2022-12-28T14:30:21;1.45;;;0.60;;
31920;SDS011;66282;52.090;4.400;2022-12-28T14:32:47;2.72;;;0.82;;
31920;SDS011;66282;52.090;4.400;2022-12-28T14:35:22;1.93;;;0.73;;
31920;SDS011;66282;52.090;4.400;2022-12-28T14:37:50;2.25;;;0.75;;
31920;SDS011;66282;52.090;4.400;2022-12-28T14:40:20;2.42;;;0.77;;
31920;SDS011;66282;52.090;4.400;2022-12-28T14:42:48;2.47;;;0.60;;
31920;SDS011;66282;52.090;4.400;2022-12-28T14:45:20;2.47;;;0.70;;
31920;SDS011;66282;52.090;4.400;2022-12-28T14:47:46;3.13;;;0.93;;
31920;SDS011;66282;52.090;4.400;2022-12-28T14:50:15;3.67;;;0.88;;
31920;SDS011;66282;52.090;4.400;2022-12-28T14:52:43;2.20;;;0.70;;
31920;SDS011;66282;52.090;4.400;2022-12-28T14:55:18;1.85;;;0.80;;
31920;SDS011;66282;52.090;4.400;2022-12-28T14:57:44;2.03;;;0.55;;
31920;SDS011;66282;52.090;4.400;2022-12-28T15:02:45;2.35;;;0.82;;
31920;SDS011;66282;52.090;4.400;2022-12-28T15:07:54;2.35;;;1.00;;
31920;SDS011;66282;52.090;4.400;2022-12-28T15:10:20;1.10;;;0.57;;
31920;SDS011;66282;52.090;4.400;2022-12-28T15:12:45;1.40;;;0.60;;
31920;SDS011;66282;52.090;4.400;2022-12-28T15:15:10;1.57;;;0.70;;
31920;SDS011;66282;52.090;4.400;2022-12-28T15:17:35;2.67;;;0.73;;
31920;SDS011;66282;52.090;4.400;2022-12-28T15:20:00;2.83;;;0.70;;
31920;SDS011;66282;52.090;4.400;2022-12-28T15:22:26;3.57;;;0.70;;
31920;SDS011;66282;52.090;4.400;2022-12-28T15:24:51;4.03;;;0.70;;
31920;SDS011;66282;52.090;4.400;2022-12-28T15:27:16;7.67;;;1.07;;
31920;SDS011;66282;52.090;4.400;2022-12-28T15:29:41;3.80;;;0.90;;
31920;SDS011;66282;52.090;4.400;2022-12-28T15:32:06;3.43;;;0.70;;
31920;SDS011;66282;52.090;4.400;2022-12-28T15:34:32;3.57;;;0.60;;
31920;SDS011;66282;52.090;4.400;2022-12-28T15:36:57;0.90;;;0.70;;
31920;SDS011;66282;52.090;4.400;2022-12-28T15:39:22;1.97;;;0.57;;
31920;SDS011;66282;52.090;4.400;2022-12-28T15:41:49;2.28;;;0.80;;
31920;SDS011;66282;52.090;4.400;2022-12-28T15:44:15;2.03;;;0.82;;
31920;SDS011;66282;52.090;4.400;2022-12-28T15:46:40;1.48;;;0.70;;
31920;SDS011;66282;52.090;4.400;2022-12-28T15:49:06;4.53;;;0.90;;
31920;SDS011;66282;52.090;4.400;2022-12-28T15:51:31;2.08;;;0.80;;
31920;SDS011;66282;52.090;4.400;2022-12-28T15:53:57;1.92;;;0.68;;
31920;SDS011;66282;52.090;4.400;2022-12-28T15:56:23;2.37;;;0.70;;
31920;SDS011;66282;52.090;4.400;2022-12-28T15:58:50;2.75;;;0.90;;
31920;SDS011;66282;52.090;4.400;2022-12-28T16:01:16;1.85;;;0.70;;
31920;SDS011;66282;52.090;4.400;2022-12-28T16:03:41;4.53;;;0.82;;
31920;SDS011;66282;52.090;4.400;2022-12-28T16:06:06;2.33;;;0.67;;
31920;SDS011;66282;52.090;4.400;2022-12-28T16:08:32;1.13;;;0.60;;
31920;SDS011;66282;52.090;4.400;2022-12-28T16:11:16;3.00;;;0.80;;
31920;SDS011;66282;52.090;4.400;2022-12-28T16:13:41;1.55;;;0.63;;
31920;SDS011;66282;52.090;4.400;2022-12-28T16:16:07;0.90;;;0.77;;
31920;SDS011;66282;52.090;4.400;2022-12-28T16:18:33;2.55;;;0.63;;
31920;SDS011;66282;52.090;4.400;2022-12-28T16:20:59;1.38;;;0.60;;
31920;SDS011;66282;52.090;4.400;2022-12-28T16:23:25;1.55;;;0.70;;
31920;SDS011;66282;52.090;4.400;2022-12-28T16:25:50;2.83;;;0.87;;
31920;SDS011;66282;52.090;4.400;2022-12-28T16:28:15;1.10;;;0.60;;